createdAt,value
2022-10-05T00:00:58.986Z,15.13
2022-10-05T00:03:30.438Z,11.95
2022-10-05T00:05:57.503Z,12.10
2022-10-05T00:08:30.047Z,12.63
2022-10-05T00:10:56.440Z,13.65
2022-10-05T00:13:26.144Z,11.40
2022-10-05T00:15:59.493Z,10.88
2022-10-05T00:18:27.030Z,12.70
2022-10-05T00:20:54.043Z,12.27
2022-10-05T00:23:31.418Z,12.18
2022-10-05T00:26:22.255Z,10.68
2022-10-05T00:28:49.243Z,11.93
2022-10-05T00:31:21.313Z,12.32
2022-10-05T00:33:48.746Z,12.30
2022-10-05T00:36:15.815Z,13.55
2022-10-05T00:38:43.188Z,11.00
2022-10-05T00:41:28.235Z,13.27
2022-10-05T00:44:06.693Z,12.40
2022-10-05T00:46:46.981Z,10.93
2022-10-05T00:49:35.084Z,11.50
2022-10-05T00:52:22.066Z,10.02
2022-10-05T00:55:25.065Z,11.00
2022-10-05T00:58:14.646Z,10.07
2022-10-05T01:00:53.242Z,12.20
2022-10-05T01:03:34.071Z,10.65
2022-10-05T01:06:22.450Z,10.40
2022-10-05T01:08:51.909Z,12.55
2022-10-05T01:11:18.285Z,13.65
2022-10-05T01:14:21.260Z,10.43
2022-10-05T01:16:47.974Z,12.23
2022-10-05T01:19:45.139Z,15.20
2022-10-05T01:22:36.259Z,16.27
2022-10-05T01:25:30.100Z,9.95
2022-10-05T01:28:07.664Z,14.25
2022-10-05T01:30:53.697Z,14.50
2022-10-05T01:33:40.014Z,12.10
2022-10-05T01:36:20.346Z,11.60
2022-10-05T01:39:08.376Z,8.73
2022-10-05T01:41:45.066Z,9.85
2022-10-05T01:44:17.604Z,11.15
2022-10-05T01:46:50.367Z,11.38
2022-10-05T01:49:46.012Z,12.15
2022-10-05T01:52:46.413Z,13.43
2022-10-05T01:55:19.990Z,12.48
2022-10-05T01:58:12.657Z,14.60
2022-10-05T02:00:57.988Z,11.20
2022-10-05T02:03:30.373Z,11.40
2022-10-05T02:06:04.378Z,11.50
2022-10-05T02:08:33.539Z,13.63
2022-10-05T02:11:05.399Z,14.73
2022-10-05T02:13:41.413Z,16.38
2022-10-05T02:16:16.801Z,15.02
2022-10-05T02:18:57.510Z,15.82
2022-10-05T02:21:24.604Z,14.65
2022-10-05T02:23:56.641Z,13.20
2022-10-05T02:26:25.421Z,10.82
2022-10-05T02:28:59.914Z,17.20
2022-10-05T02:31:39.807Z,13.30
2022-10-05T02:34:21.532Z,14.38
2022-10-05T02:36:56.057Z,15.85
2022-10-05T02:39:47.377Z,14.73
2022-10-05T02:42:26.043Z,13.18
2022-10-05T02:45:10.073Z,12.38
2022-10-05T02:47:43.991Z,15.50
2022-10-05T02:50:30.604Z,12.10
2022-10-05T02:53:22.601Z,12.90
2022-10-05T02:56:00.854Z,14.30
2022-10-05T02:58:32.472Z,13.85
2022-10-05T03:01:19.163Z,13.85
2022-10-05T03:04:00.266Z,13.60
2022-10-05T03:06:32.773Z,9.43
2022-10-05T03:09:07.156Z,12.63
2022-10-05T03:12:04.886Z,14.70
2022-10-05T03:14:38.395Z,10.77
2022-10-05T03:17:10.786Z,14.57
2022-10-05T03:20:01.994Z,19.10
2022-10-05T03:22:46.856Z,14.02
2022-10-05T03:25:31.242Z,11.02
2022-10-05T03:28:23.076Z,11.82
2022-10-05T03:31:15.905Z,14.15
2022-10-05T03:33:57.760Z,15.25
2022-10-05T03:36:31.776Z,13.35
2022-10-05T03:39:24.986Z,12.45
2022-10-05T03:41:59.604Z,12.65
2022-10-05T03:44:40.559Z,12.93
2022-10-05T03:47:35.864Z,12.40
2022-10-05T03:50:31.346Z,10.25
2022-10-05T03:53:19.755Z,9.45
2022-10-05T03:55:54.098Z,10.52
2022-10-05T03:58:26.100Z,9.88
2022-10-05T04:01:00.840Z,11.98
2022-10-05T04:03:39.699Z,12.50
2022-10-05T04:06:18.021Z,13.30
2022-10-05T04:08:57.875Z,11.15
2022-10-05T04:11:43.585Z,9.57
2022-10-05T04:14:25.636Z,13.27
2022-10-05T04:17:09.001Z,13.63
2022-10-05T04:22:37.111Z,11.52
2022-10-05T04:25:29.451Z,11.15
2022-10-05T04:28:10.335Z,10.75
2022-10-05T04:30:42.173Z,16.42
2022-10-05T04:33:11.291Z,10.82
2022-10-05T04:36:02.369Z,15.18
2022-10-05T04:38:48.726Z,13.45
2022-10-05T04:41:35.706Z,13.70
2022-10-05T04:44:02.068Z,11.60
2022-10-05T04:46:38.262Z,13.45
2022-10-05T04:49:18.702Z,11.65
2022-10-05T04:52:03.420Z,11.77
2022-10-05T04:54:38.982Z,9.82
2022-10-05T04:57:23.660Z,7.97
2022-10-05T05:00:11.876Z,10.70
2022-10-05T05:03:03.284Z,11.57
2022-10-05T05:05:48.402Z,9.73
2022-10-05T05:08:51.014Z,11.73
2022-10-05T05:11:40.486Z,15.13
2022-10-05T05:14:21.911Z,10.45
2022-10-05T05:17:15.187Z,9.65
2022-10-05T05:19:58.797Z,13.00
2022-10-05T05:22:25.956Z,10.07
2022-10-05T05:25:14.068Z,10.95
2022-10-05T05:27:48.565Z,10.77
2022-10-05T05:30:39.161Z,8.02
2022-10-05T05:33:05.545Z,9.27
2022-10-05T05:35:58.758Z,10.57
2022-10-05T05:38:34.121Z,8.98
2022-10-05T05:41:13.275Z,10.63
2022-10-05T05:44:09.023Z,10.05
2022-10-05T05:49:31.106Z,15.43
2022-10-05T05:52:14.475Z,135.10
2022-10-05T05:57:29.748Z,37.80
2022-10-05T06:00:16.436Z,25.10
2022-10-05T06:02:54.341Z,23.83
2022-10-05T06:05:27.168Z,15.85
2022-10-05T06:07:55.569Z,11.48
2022-10-05T06:10:34.902Z,17.50
2022-10-05T06:13:10.406Z,28.85
2022-10-05T06:15:42.945Z,31.25
2022-10-05T06:18:15.741Z,23.75
2022-10-05T06:21:14.180Z,33.28
2022-10-05T06:24:00.782Z,28.75
2022-10-05T06:27:06.244Z,46.10
2022-10-05T06:30:06.826Z,21.05
2022-10-05T06:32:43.471Z,18.10
2022-10-05T06:35:46.495Z,11.77
2022-10-05T06:38:34.516Z,8.47
2022-10-05T06:41:38.710Z,11.32
2022-10-05T06:44:48.481Z,8.05
2022-10-05T06:47:33.614Z,10.10
2022-10-05T06:50:08.114Z,9.98
2022-10-05T06:52:40.153Z,8.35
2022-10-05T06:55:40.428Z,9.57
2022-10-05T06:58:36.358Z,10.52
2022-10-05T07:01:15.284Z,8.20
2022-10-05T07:04:03.406Z,14.07
2022-10-05T07:06:43.406Z,13.63
2022-10-05T07:09:43.620Z,16.02
2022-10-05T07:12:13.104Z,10.85
2022-10-05T07:15:30.496Z,12.48
2022-10-05T07:18:15.520Z,9.57
2022-10-05T07:20:52.230Z,11.25
2022-10-05T07:23:24.629Z,12.82
2022-10-05T07:25:51.040Z,10.40
2022-10-05T07:28:27.800Z,9.85
2022-10-05T07:31:09.498Z,10.73
2022-10-05T07:33:53.188Z,9.43
2022-10-05T07:36:54.389Z,9.82
2022-10-05T07:39:55.493Z,10.13
2022-10-05T07:42:29.615Z,8.50
2022-10-05T07:45:08.223Z,7.10
2022-10-05T07:47:50.623Z,9.40
2022-10-05T07:50:27.633Z,10.57
2022-10-05T07:52:56.577Z,10.40
2022-10-05T07:55:36.915Z,9.85
2022-10-05T07:58:17.462Z,9.45
2022-10-05T08:01:00.559Z,12.13
2022-10-05T08:03:49.787Z,9.15
2022-10-05T08:06:30.233Z,28.15
2022-10-05T08:09:04.864Z,10.73
2022-10-05T08:11:42.018Z,11.52
2022-10-05T08:14:16.913Z,10.27
2022-10-05T08:16:46.571Z,10.88
2022-10-05T08:19:33.847Z,9.40
2022-10-05T08:22:09.315Z,34.72
2022-10-05T08:24:46.310Z,13.60
2022-10-05T08:27:23.042Z,10.57
2022-10-05T08:30:01.363Z,11.80
2022-10-05T08:32:34.872Z,9.27
2022-10-05T08:35:21.581Z,15.68
2022-10-05T08:37:49.302Z,9.25
2022-10-05T08:40:18.701Z,12.13
2022-10-05T08:43:23.619Z,13.07
2022-10-05T08:46:25.657Z,8.35
2022-10-05T08:48:58.024Z,13.15
2022-10-05T08:51:58.486Z,11.80
2022-10-05T08:54:43.366Z,12.50
2022-10-05T08:57:18.228Z,9.30
2022-10-05T09:00:10.284Z,10.63
2022-10-05T09:02:36.700Z,22.73
2022-10-05T09:05:09.192Z,16.17
2022-10-05T09:07:47.773Z,15.23
2022-10-05T09:10:26.073Z,16.77
2022-10-05T09:13:12.585Z,16.60
2022-10-05T09:15:39.351Z,14.65
2022-10-05T09:18:24.840Z,15.43
2022-10-05T09:20:55.105Z,15.55
2022-10-05T09:24:00.506Z,15.35
2022-10-05T09:27:03.319Z,10.80
2022-10-05T09:29:47.676Z,11.85
2022-10-05T09:32:44.458Z,21.77
2022-10-05T09:35:32.108Z,14.57
2022-10-05T09:38:34.172Z,11.90
2022-10-05T09:41:06.929Z,12.50
2022-10-05T09:43:51.391Z,13.43
2022-10-05T09:46:17.755Z,17.50
2022-10-05T09:49:07.432Z,16.65
2022-10-05T09:51:36.661Z,12.43
2022-10-05T09:54:23.305Z,11.93
2022-10-05T09:57:27.955Z,10.90
2022-10-05T10:00:15.842Z,7.78
2022-10-05T10:02:58.437Z,8.85
2022-10-05T10:05:49.431Z,9.77
2022-10-05T10:08:27.940Z,10.48
2022-10-05T10:11:20.270Z,14.40
2022-10-05T10:13:55.706Z,12.20
2022-10-05T10:16:46.124Z,11.77
2022-10-05T10:19:21.464Z,13.88
2022-10-05T10:22:18.929Z,15.98
2022-10-05T10:25:16.540Z,16.75
2022-10-05T10:27:42.880Z,12.23
2022-10-05T10:30:39.481Z,13.52
2022-10-05T10:33:15.583Z,15.60
2022-10-05T10:36:04.439Z,18.88
2022-10-05T10:38:39.985Z,19.90
2022-10-05T10:43:44.741Z,13.93
2022-10-05T10:46:44.672Z,16.27
2022-10-05T10:49:25.270Z,19.75
2022-10-05T10:52:01.797Z,18.30
2022-10-05T10:54:41.395Z,20.52
2022-10-05T10:57:16.854Z,18.52
2022-10-05T10:59:49.269Z,24.45
2022-10-05T11:02:31.501Z,18.92
2022-10-05T11:05:31.603Z,23.25
2022-10-05T11:08:33.263Z,22.52
2022-10-05T11:11:22.586Z,25.25
2022-10-05T11:13:56.244Z,26.55
2022-10-05T11:16:47.894Z,30.08
2022-10-05T11:19:24.886Z,31.60
2022-10-05T11:22:22.592Z,35.10
2022-10-05T11:25:02.374Z,43.00
2022-10-05T11:28:08.249Z,41.28
2022-10-05T11:31:02.769Z,37.22
2022-10-05T11:33:32.067Z,51.92
2022-10-05T11:36:17.914Z,35.03
2022-10-05T11:39:18.354Z,67.47
2022-10-05T11:42:22.100Z,43.40
2022-10-05T11:47:40.336Z,29.23
2022-10-05T11:50:20.376Z,27.17
2022-10-05T11:53:00.713Z,28.42
2022-10-05T11:55:44.851Z,34.13
2022-10-05T11:58:20.545Z,31.65
2022-10-05T12:00:56.842Z,30.77
2022-10-05T12:03:54.800Z,39.45
2022-10-05T12:06:46.532Z,43.25
2022-10-05T12:09:38.257Z,74.38
2022-10-05T12:12:07.841Z,80.15
2022-10-05T12:14:59.050Z,75.68
2022-10-05T12:17:45.191Z,39.67
2022-10-05T12:20:46.155Z,35.50
2022-10-05T12:23:23.072Z,40.83
2022-10-05T12:26:01.609Z,34.13
2022-10-05T12:28:40.823Z,39.75
2022-10-05T12:31:32.258Z,40.33
2022-10-05T12:34:08.077Z,37.33
2022-10-05T12:37:05.954Z,35.28
2022-10-05T12:39:54.575Z,41.13
2022-10-05T12:42:41.763Z,44.10
2022-10-05T12:45:14.551Z,33.80
2022-10-05T12:48:26.853Z,31.92
2022-10-05T12:51:19.323Z,31.15
2022-10-05T12:54:00.139Z,38.47
2022-10-05T12:56:42.865Z,30.35
2022-10-05T12:59:47.453Z,28.50
2022-10-05T13:02:42.349Z,38.42
2022-10-05T13:05:08.722Z,43.72
2022-10-05T13:07:46.179Z,37.83
2022-10-05T13:10:33.306Z,41.33
2022-10-05T13:13:57.583Z,35.75
2022-10-05T13:19:34.217Z,30.20
2022-10-05T13:22:16.654Z,30.70
2022-10-05T13:25:04.381Z,30.87
2022-10-05T13:27:40.013Z,33.17
2022-10-05T13:30:18.724Z,38.40
2022-10-05T13:32:48.385Z,51.58
2022-10-05T13:35:30.485Z,56.55
2022-10-05T13:38:05.951Z,37.95
2022-10-05T13:40:43.829Z,42.75
2022-10-05T13:43:32.264Z,30.55
2022-10-05T13:46:10.603Z,31.58
2022-10-05T13:48:56.979Z,42.08
2022-10-05T13:51:40.607Z,37.08
2022-10-05T13:54:19.203Z,37.78
2022-10-05T13:56:51.810Z,35.90
2022-10-05T13:59:43.853Z,29.77
2022-10-05T14:02:15.388Z,36.67
2022-10-05T14:04:58.683Z,32.28
2022-10-05T14:10:11.432Z,29.27
2022-10-05T14:12:44.267Z,33.05
2022-10-05T14:15:55.248Z,35.65
2022-10-05T14:18:27.235Z,34.60
2022-10-05T14:21:17.086Z,39.00
2022-10-05T14:23:43.866Z,47.35
2022-10-05T14:26:39.802Z,45.15
2022-10-05T14:29:14.995Z,35.63
2022-10-05T14:32:15.599Z,42.30
2022-10-05T14:34:56.141Z,30.33
2022-10-05T14:37:25.712Z,34.88
2022-10-05T14:39:57.322Z,34.55
2022-10-05T14:42:29.081Z,35.08
2022-10-05T14:45:20.366Z,36.85
2022-10-05T14:47:51.375Z,33.08
2022-10-05T14:50:26.255Z,36.72
2022-10-05T14:53:11.030Z,30.58
2022-10-05T14:56:02.033Z,36.42
2022-10-05T14:58:43.621Z,27.58
2022-10-05T15:01:44.661Z,29.55
2022-10-05T15:04:17.762Z,31.45
2022-10-05T15:09:45.922Z,28.80
2022-10-05T15:12:18.225Z,29.38
2022-10-05T15:14:47.340Z,29.73
2022-10-05T15:17:20.486Z,35.78
2022-10-05T15:20:09.515Z,35.13
2022-10-05T15:23:07.296Z,35.60
2022-10-05T15:25:48.356Z,38.00
2022-10-05T15:28:42.834Z,38.60
2022-10-05T15:31:26.711Z,42.72
2022-10-05T15:34:07.366Z,42.75
2022-10-05T15:36:52.719Z,40.25
2022-10-05T15:39:43.302Z,38.42
2022-10-05T15:42:17.277Z,42.83
2022-10-05T15:45:02.298Z,41.28
2022-10-05T15:47:47.639Z,45.10
2022-10-05T15:50:26.714Z,43.10
2022-10-05T15:53:06.501Z,47.45
2022-10-05T15:55:42.156Z,44.28
2022-10-05T15:59:00.790Z,45.75
2022-10-05T16:01:33.199Z,50.78
2022-10-05T16:04:02.489Z,43.47
2022-10-05T16:07:09.423Z,48.58
2022-10-05T16:10:01.295Z,41.58
2022-10-05T16:12:37.177Z,44.13
2022-10-05T16:15:28.432Z,45.03
2022-10-05T16:18:18.282Z,40.80
2022-10-05T16:21:02.748Z,41.60
2022-10-05T16:23:41.716Z,41.83
2022-10-05T16:26:09.078Z,39.95
2022-10-05T16:29:12.887Z,43.38
2022-10-05T16:34:31.410Z,521.97
2022-10-05T16:37:02.270Z,311.50
2022-10-05T16:39:45.658Z,97.35
2022-10-05T16:42:47.376Z,46.25
2022-10-05T16:45:47.129Z,40.67
2022-10-05T16:48:25.515Z,43.83
2022-10-05T16:51:15.394Z,45.63
2022-10-05T16:54:03.830Z,41.30
2022-10-05T16:56:42.620Z,43.35
2022-10-05T16:59:11.708Z,41.25
2022-10-05T17:01:56.543Z,39.72
2022-10-05T17:04:44.756Z,42.83
2022-10-05T17:07:39.285Z,42.50
2022-10-05T17:10:46.240Z,46.83
2022-10-05T17:13:36.256Z,36.42
2022-10-05T17:16:40.341Z,41.00
2022-10-05T17:19:32.805Z,41.05
2022-10-05T17:22:31.152Z,45.15
2022-10-05T17:25:06.783Z,39.53
2022-10-05T17:27:35.202Z,40.13
2022-10-05T17:30:29.381Z,40.95
2022-10-05T17:33:17.663Z,43.33
2022-10-05T17:35:52.141Z,42.10
2022-10-05T17:38:24.417Z,41.33
2022-10-05T17:41:00.213Z,48.33
2022-10-05T17:43:35.580Z,43.25
2022-10-05T17:46:08.694Z,47.38
2022-10-05T17:51:47.736Z,51.13
2022-10-05T17:54:48.217Z,48.88
2022-10-05T17:57:36.748Z,44.33
2022-10-05T18:00:29.290Z,35.25
2022-10-05T18:02:57.431Z,43.55
2022-10-05T18:05:28.760Z,69.47
2022-10-05T18:08:13.219Z,48.42
2022-10-05T18:11:19.792Z,37.75
2022-10-05T18:13:49.960Z,41.92
2022-10-05T18:16:59.416Z,35.22
2022-10-05T18:19:30.066Z,35.30
2022-10-05T18:22:03.557Z,72.88
2022-10-05T18:24:49.737Z,109.22
2022-10-05T18:27:26.476Z,200.18
2022-10-05T18:30:14.313Z,235.23
2022-10-05T18:33:20.297Z,120.20
2022-10-05T18:36:06.776Z,42.13
2022-10-05T18:38:55.146Z,36.72
2022-10-05T18:41:27.422Z,43.65
2022-10-05T18:44:12.118Z,44.10
2022-10-05T18:46:45.293Z,47.15
2022-10-05T18:49:20.466Z,44.85
2022-10-05T18:51:54.885Z,47.05
2022-10-05T18:54:47.426Z,44.65
2022-10-05T18:57:47.605Z,45.78
2022-10-05T19:00:21.415Z,44.42
2022-10-05T19:02:57.276Z,38.92
2022-10-05T19:05:47.960Z,43.80
2022-10-05T19:08:45.178Z,35.13
2022-10-05T19:11:53.310Z,38.45
2022-10-05T19:14:45.243Z,38.85
2022-10-05T19:17:17.611Z,37.10
2022-10-05T19:19:53.124Z,40.83
2022-10-05T19:22:43.759Z,41.67
2022-10-05T19:25:22.329Z,39.28
2022-10-05T19:28:01.043Z,37.67
2022-10-05T19:30:41.997Z,37.28
2022-10-05T19:33:33.591Z,37.22
2022-10-05T19:36:18.382Z,40.13
2022-10-05T19:38:52.039Z,42.45
2022-10-05T19:41:42.065Z,39.40
2022-10-05T19:44:08.428Z,36.85
2022-10-05T19:46:37.842Z,40.83
2022-10-05T19:49:09.587Z,36.08
2022-10-05T19:51:47.948Z,41.10
2022-10-05T19:54:28.970Z,37.97
2022-10-05T19:56:57.224Z,39.75
2022-10-05T19:59:31.296Z,38.92
2022-10-05T20:01:58.822Z,42.60
2022-10-05T20:04:34.316Z,46.47
2022-10-05T20:07:02.296Z,46.92
2022-10-05T20:09:29.623Z,43.08
2022-10-05T20:11:56.725Z,42.88
2022-10-05T20:14:31.733Z,41.08
2022-10-05T20:17:44.250Z,45.28
2022-10-05T20:20:31.096Z,45.95
2022-10-05T20:23:20.988Z,49.17
2022-10-05T20:26:07.870Z,38.05
2022-10-05T20:28:34.375Z,40.80
2022-10-05T20:31:00.841Z,38.33
2022-10-05T20:33:28.108Z,42.13
2022-10-05T20:35:55.680Z,53.67
2022-10-05T20:38:22.798Z,44.30
2022-10-05T20:40:49.224Z,43.08
2022-10-05T20:43:15.829Z,39.38
2022-10-05T20:45:43.238Z,41.17
2022-10-05T20:48:14.207Z,38.80
2022-10-05T20:50:40.781Z,36.97
2022-10-05T20:53:11.793Z,46.38
2022-10-05T20:55:38.593Z,36.00
2022-10-05T20:58:05.052Z,35.17
2022-10-05T21:00:51.491Z,37.03
2022-10-05T21:03:19.211Z,37.20
2022-10-05T21:05:46.850Z,37.80
2022-10-05T21:08:13.857Z,35.17
2022-10-05T21:10:40.301Z,33.10
2022-10-05T21:13:06.716Z,36.63
2022-10-05T21:15:33.101Z,28.13
2022-10-05T21:17:59.526Z,31.10
2022-10-05T21:20:25.996Z,30.83
2022-10-05T21:22:52.386Z,28.77
2022-10-05T21:25:18.898Z,28.38
2022-10-05T21:27:46.279Z,27.80
2022-10-05T21:30:12.835Z,30.35
2022-10-05T21:32:43.994Z,25.73
2022-10-05T21:35:10.939Z,33.58
2022-10-05T21:37:37.570Z,34.70
2022-10-05T21:40:04.629Z,30.90
2022-10-05T21:42:31.302Z,30.42
2022-10-05T21:44:57.686Z,27.15
2022-10-05T21:47:24.150Z,27.45
2022-10-05T21:49:50.575Z,25.95
2022-10-05T21:52:17.657Z,29.58
2022-10-05T21:54:44.125Z,25.90
2022-10-05T21:57:12.331Z,24.08
2022-10-05T21:59:40.173Z,27.23
2022-10-05T22:02:06.945Z,29.83
2022-10-05T22:04:33.306Z,25.67
2022-10-05T22:06:59.673Z,26.45
2022-10-05T22:09:26.191Z,24.08
2022-10-05T22:11:52.623Z,25.70
2022-10-05T22:14:19.038Z,27.02
2022-10-05T22:16:45.649Z,27.58
2022-10-05T22:19:18.607Z,24.33
2022-10-05T22:21:45.082Z,26.40
2022-10-05T22:24:11.730Z,27.63
2022-10-05T22:26:40.077Z,25.33
2022-10-05T22:29:06.496Z,23.15
2022-10-05T22:31:33.065Z,21.70
2022-10-05T22:33:59.509Z,27.05
2022-10-05T22:36:26.129Z,22.52
2022-10-05T22:38:52.520Z,24.27
2022-10-05T22:41:19.532Z,23.98
2022-10-05T22:43:50.114Z,26.30
2022-10-05T22:46:17.152Z,24.85
2022-10-05T22:48:43.582Z,20.08
2022-10-05T22:51:10.284Z,20.42
2022-10-05T22:53:36.725Z,22.08
2022-10-05T22:56:05.123Z,29.85
2022-10-05T22:58:31.685Z,23.45
2022-10-05T23:01:06.512Z,29.20
2022-10-05T23:03:33.738Z,26.42
2022-10-05T23:06:03.507Z,23.90
2022-10-05T23:08:31.708Z,24.90
2022-10-05T23:11:06.301Z,23.38
2022-10-05T23:13:33.504Z,22.77
2022-10-05T23:16:15.118Z,25.20
2022-10-05T23:18:42.211Z,21.90
2022-10-05T23:21:10.467Z,22.02
2022-10-05T23:23:38.545Z,23.20
2022-10-05T23:26:07.184Z,25.02
2022-10-05T23:28:34.627Z,21.75
2022-10-05T23:31:03.143Z,20.70
2022-10-05T23:33:29.590Z,20.08
2022-10-05T23:36:06.756Z,20.63
2022-10-05T23:38:34.750Z,26.08
2022-10-05T23:41:02.421Z,23.38
2022-10-05T23:43:29.277Z,19.15
2022-10-05T23:45:56.458Z,20.33
2022-10-05T23:48:22.927Z,20.17
2022-10-05T23:50:49.980Z,25.08
2022-10-05T23:53:17.895Z,21.85
2022-10-05T23:55:44.633Z,24.42
2022-10-05T23:58:11.674Z,24.75
